sensor_id;sensor_type;location;lat;lon;timestamp;temperature;humidity
9980;DHT22;5030;51.532;6.766;2022-09-01T00:01:35;17.20;45.10
9980;DHT22;5030;51.532;6.766;2022-09-01T00:04:03;17.20;46.00
9980;DHT22;5030;51.532;6.766;2022-09-01T00:06:32;17.10;45.00
9980;DHT22;5030;51.532;6.766;2022-09-01T00:09:04;17.00;45.60
9980;DHT22;5030;51.532;6.766;2022-09-01T00:11:30;16.90;45.20
9980;DHT22;5030;51.532;6.766;2022-09-01T00:13:56;17.00;45.60
9980;DHT22;5030;51.532;6.766;2022-09-01T00:16:22;16.90;45.30
9980;DHT22;5030;51.532;6.766;2022-09-01T00:18:50;16.80;45.80
9980;DHT22;5030;51.532;6.766;2022-09-01T00:21:20;16.80;49.00
9980;DHT22;5030;51.532;6.766;2022-09-01T00:23:46;16.90;45.80
9980;DHT22;5030;51.532;6.766;2022-09-01T00:26:12;16.90;45.80
9980;DHT22;5030;51.532;6.766;2022-09-01T00:28:39;16.90;45.90
9980;DHT22;5030;51.532;6.766;2022-09-01T00:31:06;16.80;46.10
9980;DHT22;5030;51.532;6.766;2022-09-01T00:33:33;16.80;47.10
9980;DHT22;5030;51.532;6.766;2022-09-01T00:36:00;16.70;48.10
9980;DHT22;5030;51.532;6.766;2022-09-01T00:38:26;16.70;46.70
9980;DHT22;5030;51.532;6.766;2022-09-01T00:40:52;16.60;47.40
9980;DHT22;5030;51.532;6.766;2022-09-01T00:43:22;16.70;47.40
9980;DHT22;5030;51.532;6.766;2022-09-01T00:45:49;16.50;47.60
9980;DHT22;5030;51.532;6.766;2022-09-01T00:48:17;16.50;48.80
9980;DHT22;5030;51.532;6.766;2022-09-01T00:50:45;16.50;49.70
9980;DHT22;5030;51.532;6.766;2022-09-01T00:53:10;16.50;51.00
9980;DHT22;5030;51.532;6.766;2022-09-01T00:55:37;16.60;47.80
9980;DHT22;5030;51.532;6.766;2022-09-01T00:58:04;16.50;48.20
9980;DHT22;5030;51.532;6.766;2022-09-01T01:00:33;16.50;48.90
9980;DHT22;5030;51.532;6.766;2022-09-01T01:03:08;16.50;49.20
9980;DHT22;5030;51.532;6.766;2022-09-01T01:05:39;16.40;51.70
9980;DHT22;5030;51.532;6.766;2022-09-01T01:08:06;16.20;51.10
9980;DHT22;5030;51.532;6.766;2022-09-01T01:10:36;16.20;51.90
9980;DHT22;5030;51.532;6.766;2022-09-01T01:13:06;16.20;52.10
9980;DHT22;5030;51.532;6.766;2022-09-01T01:15:33;16.10;53.50
9980;DHT22;5030;51.532;6.766;2022-09-01T01:17:58;15.90;80.00
9980;DHT22;5030;51.532;6.766;2022-09-01T01:20:27;15.70;57.70
9980;DHT22;5030;51.532;6.766;2022-09-01T01:25:57;15.60;63.70
9980;DHT22;5030;51.532;6.766;2022-09-01T01:28:29;15.60;64.90
9980;DHT22;5030;51.532;6.766;2022-09-01T01:31:05;15.60;64.60
9980;DHT22;5030;51.532;6.766;2022-09-01T01:33:40;15.70;65.90
9980;DHT22;5030;51.532;6.766;2022-09-01T01:36:33;15.70;62.70
9980;DHT22;5030;51.532;6.766;2022-09-01T01:39:01;15.70;63.20
9980;DHT22;5030;51.532;6.766;2022-09-01T01:41:30;15.70;64.80
9980;DHT22;5030;51.532;6.766;2022-09-01T01:43:58;15.70;65.60
9980;DHT22;5030;51.532;6.766;2022-09-01T01:46:25;15.80;63.20
9980;DHT22;5030;51.532;6.766;2022-09-01T01:48:51;15.70;63.90
9980;DHT22;5030;51.532;6.766;2022-09-01T01:51:19;15.60;65.80
9980;DHT22;5030;51.532;6.766;2022-09-01T01:53:46;15.60;66.50
9980;DHT22;5030;51.532;6.766;2022-09-01T01:56:12;15.60;67.00
9980;DHT22;5030;51.532;6.766;2022-09-01T01:58:38;15.60;70.80
9980;DHT22;5030;51.532;6.766;2022-09-01T02:01:05;15.70;67.50
9980;DHT22;5030;51.532;6.766;2022-09-01T02:03:36;15.60;69.10
9980;DHT22;5030;51.532;6.766;2022-09-01T02:06:07;15.60;70.70
9980;DHT22;5030;51.532;6.766;2022-09-01T02:08:35;15.50;75.10
9980;DHT22;5030;51.532;6.766;2022-09-01T02:11:02;15.40;76.30
9980;DHT22;5030;51.532;6.766;2022-09-01T02:13:28;15.50;76.80
9980;DHT22;5030;51.532;6.766;2022-09-01T02:16:01;15.50;77.30
9980;DHT22;5030;51.532;6.766;2022-09-01T02:18:32;15.50;76.50
9980;DHT22;5030;51.532;6.766;2022-09-01T02:21:03;15.60;75.60
9980;DHT22;5030;51.532;6.766;2022-09-01T02:23:36;15.60;75.40
9980;DHT22;5030;51.532;6.766;2022-09-01T02:26:03;15.60;76.60
9980;DHT22;5030;51.532;6.766;2022-09-01T02:28:32;15.70;76.30
9980;DHT22;5030;51.532;6.766;2022-09-01T02:30:59;15.60;79.20
9980;DHT22;5030;51.532;6.766;2022-09-01T02:33:26;15.60;78.80
9980;DHT22;5030;51.532;6.766;2022-09-01T02:35:55;15.60;75.70
9980;DHT22;5030;51.532;6.766;2022-09-01T02:38:21;15.60;76.60
9980;DHT22;5030;51.532;6.766;2022-09-01T02:40:55;15.50;79.60
9980;DHT22;5030;51.532;6.766;2022-09-01T02:43:21;15.30;84.10
9980;DHT22;5030;51.532;6.766;2022-09-01T02:45:48;15.20;87.30
9980;DHT22;5030;51.532;6.766;2022-09-01T02:48:20;15.20;89.40
9980;DHT22;5030;51.532;6.766;2022-09-01T02:50:49;15.20;87.40
9980;DHT22;5030;51.532;6.766;2022-09-01T02:53:14;15.10;88.60
9980;DHT22;5030;51.532;6.766;2022-09-01T02:55:41;15.00;89.80
9980;DHT22;5030;51.532;6.766;2022-09-01T02:58:08;14.90;92.70
9980;DHT22;5030;51.532;6.766;2022-09-01T03:00:43;14.90;93.70
9980;DHT22;5030;51.532;6.766;2022-09-01T03:03:09;14.90;93.20
9980;DHT22;5030;51.532;6.766;2022-09-01T03:05:37;14.90;94.00
9980;DHT22;5030;51.532;6.766;2022-09-01T03:08:09;14.90;95.10
9980;DHT22;5030;51.532;6.766;2022-09-01T03:10:39;14.80;97.30
9980;DHT22;5030;51.532;6.766;2022-09-01T03:13:12;14.90;94.90
9980;DHT22;5030;51.532;6.766;2022-09-01T03:15:39;14.90;95.00
9980;DHT22;5030;51.532;6.766;2022-09-01T03:18:07;14.80;96.80
9980;DHT22;5030;51.532;6.766;2022-09-01T03:20:35;14.90;97.90
9980;DHT22;5030;51.532;6.766;2022-09-01T03:23:05;14.90;96.80
9980;DHT22;5030;51.532;6.766;2022-09-01T03:25:34;15.00;96.80
9980;DHT22;5030;51.532;6.766;2022-09-01T03:27:59;14.90;97.50
9980;DHT22;5030;51.532;6.766;2022-09-01T03:30:28;14.90;98.30
9980;DHT22;5030;51.532;6.766;2022-09-01T03:32:58;14.90;98.30
9980;DHT22;5030;51.532;6.766;2022-09-01T03:35:25;14.90;97.30
9980;DHT22;5030;51.532;6.766;2022-09-01T03:37:53;15.00;97.10
9980;DHT22;5030;51.532;6.766;2022-09-01T03:40:20;15.00;99.90
9980;DHT22;5030;51.532;6.766;2022-09-01T03:42:45;15.00;95.90
9980;DHT22;5030;51.532;6.766;2022-09-01T03:45:12;15.00;96.40
9980;DHT22;5030;51.532;6.766;2022-09-01T03:47:41;15.00;96.60
9980;DHT22;5030;51.532;6.766;2022-09-01T03:50:12;15.00;98.30
9980;DHT22;5030;51.532;6.766;2022-09-01T03:52:49;15.00;98.90
9980;DHT22;5030;51.532;6.766;2022-09-01T03:55:17;14.90;99.90
9980;DHT22;5030;51.532;6.766;2022-09-01T03:57:56;14.80;99.90
9980;DHT22;5030;51.532;6.766;2022-09-01T04:00:23;14.80;99.90
9980;DHT22;5030;51.532;6.766;2022-09-01T04:02:55;14.80;99.90
9980;DHT22;5030;51.532;6.766;2022-09-01T04:05:22;14.70;99.90
9980;DHT22;5030;51.532;6.766;2022-09-01T04:07:50;14.70;99.90
9980;DHT22;5030;51.532;6.766;2022-09-01T04:10:17;14.60;99.90
9980;DHT22;5030;51.532;6.766;2022-09-01T04:12:44;14.70;99.90
9980;DHT22;5030;51.532;6.766;2022-09-01T04:15:11;14.60;99.90
9980;DHT22;5030;51.532;6.766;2022-09-01T04:17:37;14.70;99.90
9980;DHT22;5030;51.532;6.766;2022-09-01T04:20:21;14.70;99.90
9980;DHT22;5030;51.532;6.766;2022-09-01T04:22:48;14.60;99.90
9980;DHT22;5030;51.532;6.766;2022-09-01T04:25:18;14.70;99.90
9980;DHT22;5030;51.532;6.766;2022-09-01T04:27:52;14.60;99.90
9980;DHT22;5030;51.532;6.766;2022-09-01T04:30:22;14.50;99.90
9980;DHT22;5030;51.532;6.766;2022-09-01T04:32:51;14.40;99.90
9980;DHT22;5030;51.532;6.766;2022-09-01T04:35:19;14.40;99.90
9980;DHT22;5030;51.532;6.766;2022-09-01T04:37:45;14.50;99.90
9980;DHT22;5030;51.532;6.766;2022-09-01T04:40:12;14.40;99.90
9980;DHT22;5030;51.532;6.766;2022-09-01T04:42:38;14.40;99.90
9980;DHT22;5030;51.532;6.766;2022-09-01T04:45:06;14.30;99.90
9980;DHT22;5030;51.532;6.766;2022-09-01T04:47:35;14.20;99.90
9980;DHT22;5030;51.532;6.766;2022-09-01T04:50:03;14.20;99.90
9980;DHT22;5030;51.532;6.766;2022-09-01T04:52:37;14.20;99.90
9980;DHT22;5030;51.532;6.766;2022-09-01T04:55:03;14.10;99.90
9980;DHT22;5030;51.532;6.766;2022-09-01T04:57:28;14.30;99.90
9980;DHT22;5030;51.532;6.766;2022-09-01T04:59:55;14.30;99.90
9980;DHT22;5030;51.532;6.766;2022-09-01T05:02:22;14.30;99.90
9980;DHT22;5030;51.532;6.766;2022-09-01T05:04:51;14.30;99.90
9980;DHT22;5030;51.532;6.766;2022-09-01T05:07:23;14.40;99.90
9980;DHT22;5030;51.532;6.766;2022-09-01T05:09:48;14.40;99.90
9980;DHT22;5030;51.532;6.766;2022-09-01T05:12:14;14.40;99.90
9980;DHT22;5030;51.532;6.766;2022-09-01T05:14:43;14.40;99.90
9980;DHT22;5030;51.532;6.766;2022-09-01T05:17:10;14.40;99.90
9980;DHT22;5030;51.532;6.766;2022-09-01T05:19:38;14.20;99.90
9980;DHT22;5030;51.532;6.766;2022-09-01T05:22:06;14.10;99.90
9980;DHT22;5030;51.532;6.766;2022-09-01T05:24:33;13.90;99.90
9980;DHT22;5030;51.532;6.766;2022-09-01T05:27:00;13.90;99.90
9980;DHT22;5030;51.532;6.766;2022-09-01T05:29:26;13.80;99.90
9980;DHT22;5030;51.532;6.766;2022-09-01T05:31:54;13.80;99.90
9980;DHT22;5030;51.532;6.766;2022-09-01T05:34:21;13.80;99.90
9980;DHT22;5030;51.532;6.766;2022-09-01T05:36:56;13.90;99.90
9980;DHT22;5030;51.532;6.766;2022-09-01T05:39:22;13.80;99.90
9980;DHT22;5030;51.532;6.766;2022-09-01T05:41:48;13.90;99.90
9980;DHT22;5030;51.532;6.766;2022-09-01T05:44:14;13.90;99.90
9980;DHT22;5030;51.532;6.766;2022-09-01T05:46:41;13.90;99.90
9980;DHT22;5030;51.532;6.766;2022-09-01T05:49:08;14.00;99.90
9980;DHT22;5030;51.532;6.766;2022-09-01T05:51:48;14.10;99.90
9980;DHT22;5030;51.532;6.766;2022-09-01T05:54:17;14.10;99.90
9980;DHT22;5030;51.532;6.766;2022-09-01T05:56:44;14.30;99.90
9980;DHT22;5030;51.532;6.766;2022-09-01T05:59:11;14.50;99.90
9980;DHT22;5030;51.532;6.766;2022-09-01T06:01:37;14.80;99.90
9980;DHT22;5030;51.532;6.766;2022-09-01T06:04:06;15.10;99.90
9980;DHT22;5030;51.532;6.766;2022-09-01T06:06:44;15.30;99.90
9980;DHT22;5030;51.532;6.766;2022-09-01T06:09:14;15.50;99.90
9980;DHT22;5030;51.532;6.766;2022-09-01T06:11:45;15.50;99.90
9980;DHT22;5030;51.532;6.766;2022-09-01T06:14:12;15.70;99.90
9980;DHT22;5030;51.532;6.766;2022-09-01T06:16:38;15.70;99.90
9980;DHT22;5030;51.532;6.766;2022-09-01T06:19:07;15.70;99.90
9980;DHT22;5030;51.532;6.766;2022-09-01T06:21:32;15.80;99.90
9980;DHT22;5030;51.532;6.766;2022-09-01T06:23:58;15.70;99.90
9980;DHT22;5030;51.532;6.766;2022-09-01T06:26:28;15.70;99.90
9980;DHT22;5030;51.532;6.766;2022-09-01T06:28:59;15.70;99.90
9980;DHT22;5030;51.532;6.766;2022-09-01T06:31:28;15.60;99.90
9980;DHT22;5030;51.532;6.766;2022-09-01T06:33:59;15.70;99.90
9980;DHT22;5030;51.532;6.766;2022-09-01T06:36:25;15.70;99.90
9980;DHT22;5030;51.532;6.766;2022-09-01T06:38:52;15.80;99.90
9980;DHT22;5030;51.532;6.766;2022-09-01T06:41:20;15.80;99.90
9980;DHT22;5030;51.532;6.766;2022-09-01T06:43:47;15.70;99.90
9980;DHT22;5030;51.532;6.766;2022-09-01T06:46:17;15.90;99.90
9980;DHT22;5030;51.532;6.766;2022-09-01T06:48:44;15.90;99.90
9980;DHT22;5030;51.532;6.766;2022-09-01T06:51:16;15.90;99.90
9980;DHT22;5030;51.532;6.766;2022-09-01T06:53:43;16.00;99.90
9980;DHT22;5030;51.532;6.766;2022-09-01T06:56:10;16.10;99.90
9980;DHT22;5030;51.532;6.766;2022-09-01T06:58:41;16.20;99.90
9980;DHT22;5030;51.532;6.766;2022-09-01T07:01:10;16.30;99.90
9980;DHT22;5030;51.532;6.766;2022-09-01T07:03:45;16.20;99.90
9980;DHT22;5030;51.532;6.766;2022-09-01T07:06:13;16.30;99.90
9980;DHT22;5030;51.532;6.766;2022-09-01T07:08:40;16.50;99.90
9980;DHT22;5030;51.532;6.766;2022-09-01T07:11:16;16.60;99.90
9980;DHT22;5030;51.532;6.766;2022-09-01T07:13:42;16.80;99.90
9980;DHT22;5030;51.532;6.766;2022-09-01T07:16:16;17.00;99.90
9980;DHT22;5030;51.532;6.766;2022-09-01T07:18:46;17.10;99.90
9980;DHT22;5030;51.532;6.766;2022-09-01T07:21:12;17.30;99.90
9980;DHT22;5030;51.532;6.766;2022-09-01T07:23:38;17.30;99.90
9980;DHT22;5030;51.532;6.766;2022-09-01T07:26:07;17.30;99.90
9980;DHT22;5030;51.532;6.766;2022-09-01T07:28:33;17.50;99.90
9980;DHT22;5030;51.532;6.766;2022-09-01T07:30:59;17.60;99.30
9980;DHT22;5030;51.532;6.766;2022-09-01T07:33:25;17.70;97.70
9980;DHT22;5030;51.532;6.766;2022-09-01T07:35:52;17.90;95.80
9980;DHT22;5030;51.532;6.766;2022-09-01T07:38:20;18.00;95.50
9980;DHT22;5030;51.532;6.766;2022-09-01T07:40:46;18.00;95.90
9980;DHT22;5030;51.532;6.766;2022-09-01T07:43:19;18.00;96.60
9980;DHT22;5030;51.532;6.766;2022-09-01T07:45:51;18.00;95.30
9980;DHT22;5030;51.532;6.766;2022-09-01T07:48:21;18.00;95.90
9980;DHT22;5030;51.532;6.766;2022-09-01T07:50:49;18.00;94.60
9980;DHT22;5030;51.532;6.766;2022-09-01T07:53:20;18.10;94.30
9980;DHT22;5030;51.532;6.766;2022-09-01T07:55:51;18.30;92.20
9980;DHT22;5030;51.532;6.766;2022-09-01T07:58:22;18.60;91.00
9980;DHT22;5030;51.532;6.766;2022-09-01T08:00:49;18.60;91.30
9980;DHT22;5030;51.532;6.766;2022-09-01T08:03:17;18.70;90.40
9980;DHT22;5030;51.532;6.766;2022-09-01T08:05:43;18.80;90.70
9980;DHT22;5030;51.532;6.766;2022-09-01T08:08:09;18.80;89.30
9980;DHT22;5030;51.532;6.766;2022-09-01T08:10:40;18.80;90.00
9980;DHT22;5030;51.532;6.766;2022-09-01T08:13:06;18.90;89.80
9980;DHT22;5030;51.532;6.766;2022-09-01T08:15:33;19.00;88.60
9980;DHT22;5030;51.532;6.766;2022-09-01T08:17:58;19.00;87.60
9980;DHT22;5030;51.532;6.766;2022-09-01T08:20:24;19.20;86.50
9980;DHT22;5030;51.532;6.766;2022-09-01T08:22:50;19.20;87.50
9980;DHT22;5030;51.532;6.766;2022-09-01T08:25:15;19.20;86.30
9980;DHT22;5030;51.532;6.766;2022-09-01T08:27:41;19.20;84.80
9980;DHT22;5030;51.532;6.766;2022-09-01T08:30:10;19.30;85.90
9980;DHT22;5030;51.532;6.766;2022-09-01T08:32:38;19.40;84.50
9980;DHT22;5030;51.532;6.766;2022-09-01T08:35:10;19.40;82.60
9980;DHT22;5030;51.532;6.766;2022-09-01T08:37:37;19.50;85.10
9980;DHT22;5030;51.532;6.766;2022-09-01T08:40:07;19.70;83.90
9980;DHT22;5030;51.532;6.766;2022-09-01T08:45:51;20.10;81.10
9980;DHT22;5030;51.532;6.766;2022-09-01T08:48:40;20.10;80.10
9980;DHT22;5030;51.532;6.766;2022-09-01T08:54:14;20.00;79.20
9980;DHT22;5030;51.532;6.766;2022-09-01T08:56:43;20.00;79.20
9980;DHT22;5030;51.532;6.766;2022-09-01T08:59:10;20.10;80.90
9980;DHT22;5030;51.532;6.766;2022-09-01T09:07:22;20.60;76.90
9980;DHT22;5030;51.532;6.766;2022-09-01T09:10:08;20.60;77.80
9980;DHT22;5030;51.532;6.766;2022-09-01T09:15:43;20.80;57.70
9980;DHT22;5030;51.532;6.766;2022-09-01T09:18:28;20.70;57.60
9980;DHT22;5030;51.532;6.766;2022-09-01T09:21:04;20.80;56.10
9980;DHT22;5030;51.532;6.766;2022-09-01T09:23:37;21.10;55.80
9980;DHT22;5030;51.532;6.766;2022-09-01T09:26:02;21.20;55.50
9980;DHT22;5030;51.532;6.766;2022-09-01T09:28:28;21.20;78.20
9980;DHT22;5030;51.532;6.766;2022-09-01T09:33:53;21.20;53.80
9980;DHT22;5030;51.532;6.766;2022-09-01T09:36:22;21.30;53.10
9980;DHT22;5030;51.532;6.766;2022-09-01T09:39:07;21.40;52.00
9980;DHT22;5030;51.532;6.766;2022-09-01T09:41:34;21.50;53.30
9980;DHT22;5030;51.532;6.766;2022-09-01T09:44:24;21.50;52.90
9980;DHT22;5030;51.532;6.766;2022-09-01T09:46:50;21.50;52.90
9980;DHT22;5030;51.532;6.766;2022-09-01T09:49:23;21.60;51.80
9980;DHT22;5030;51.532;6.766;2022-09-01T09:52:11;21.60;52.30
9980;DHT22;5030;51.532;6.766;2022-09-01T09:57:22;21.70;50.90
9980;DHT22;5030;51.532;6.766;2022-09-01T10:02:39;21.80;50.60
9980;DHT22;5030;51.532;6.766;2022-09-01T10:05:58;21.90;50.00
9980;DHT22;5030;51.532;6.766;2022-09-01T10:10:51;22.30;50.40
9980;DHT22;5030;51.532;6.766;2022-09-01T10:13:21;22.30;50.40
9980;DHT22;5030;51.532;6.766;2022-09-01T10:15:50;22.30;49.20
9980;DHT22;5030;51.532;6.766;2022-09-01T10:18:34;22.30;48.90
9980;DHT22;5030;51.532;6.766;2022-09-01T10:21:03;22.40;48.40
9980;DHT22;5030;51.532;6.766;2022-09-01T10:23:32;22.60;48.40
9980;DHT22;5030;51.532;6.766;2022-09-01T10:26:31;22.50;47.40
9980;DHT22;5030;51.532;6.766;2022-09-01T10:29:22;22.50;48.60
9980;DHT22;5030;51.532;6.766;2022-09-01T10:31:50;22.50;47.20
9980;DHT22;5030;51.532;6.766;2022-09-01T10:34:18;22.60;46.40
9980;DHT22;5030;51.532;6.766;2022-09-01T10:36:45;22.70;47.50
9980;DHT22;5030;51.532;6.766;2022-09-01T10:39:17;22.80;47.20
9980;DHT22;5030;51.532;6.766;2022-09-01T10:42:00;22.90;47.50
9980;DHT22;5030;51.532;6.766;2022-09-01T10:44:56;22.90;45.00
9980;DHT22;5030;51.532;6.766;2022-09-01T10:55:14;23.10;44.70
9980;DHT22;5030;51.532;6.766;2022-09-01T11:06:07;23.40;43.50
9980;DHT22;5030;51.532;6.766;2022-09-01T11:11:39;23.50;42.50
9980;DHT22;5030;51.532;6.766;2022-09-01T11:14:21;23.50;43.10
9980;DHT22;5030;51.532;6.766;2022-09-01T11:17:17;23.30;42.00
9980;DHT22;5030;51.532;6.766;2022-09-01T11:25:42;23.50;41.70
9980;DHT22;5030;51.532;6.766;2022-09-01T11:30:46;23.50;41.80
9980;DHT22;5030;51.532;6.766;2022-09-01T11:33:52;23.50;40.90
9980;DHT22;5030;51.532;6.766;2022-09-01T11:47:10;24.10;40.40
9980;DHT22;5030;51.532;6.766;2022-09-01T11:50:00;24.20;40.00
9980;DHT22;5030;51.532;6.766;2022-09-01T11:52:29;24.10;40.50
9980;DHT22;5030;51.532;6.766;2022-09-01T11:54:56;24.20;40.60
9980;DHT22;5030;51.532;6.766;2022-09-01T11:57:26;24.40;39.90
9980;DHT22;5030;51.532;6.766;2022-09-01T11:59:53;24.30;41.00
9980;DHT22;5030;51.532;6.766;2022-09-01T12:02:23;24.40;40.10
9980;DHT22;5030;51.532;6.766;2022-09-01T12:04:51;24.70;40.30
9980;DHT22;5030;51.532;6.766;2022-09-01T12:07:34;24.80;40.20
9980;DHT22;5030;51.532;6.766;2022-09-01T12:10:03;24.90;42.10
9980;DHT22;5030;51.532;6.766;2022-09-01T12:12:38;25.00;40.10
9980;DHT22;5030;51.532;6.766;2022-09-01T12:15:18;25.30;39.30
9980;DHT22;5030;51.532;6.766;2022-09-01T12:17:44;25.40;39.10
9980;DHT22;5030;51.532;6.766;2022-09-01T12:22:49;25.90;38.60
9980;DHT22;5030;51.532;6.766;2022-09-01T12:25:22;25.80;38.90
9980;DHT22;5030;51.532;6.766;2022-09-01T12:27:48;25.90;37.20
9980;DHT22;5030;51.532;6.766;2022-09-01T12:30:14;26.00;58.90
9980;DHT22;5030;51.532;6.766;2022-09-01T12:32:40;25.90;36.10
9980;DHT22;5030;51.532;6.766;2022-09-01T12:35:15;26.00;37.20
9980;DHT22;5030;51.532;6.766;2022-09-01T12:37:43;26.20;36.50
9980;DHT22;5030;51.532;6.766;2022-09-01T12:40:30;26.40;37.50
9980;DHT22;5030;51.532;6.766;2022-09-01T12:42:56;26.60;37.90
9980;DHT22;5030;51.532;6.766;2022-09-01T12:45:43;26.60;36.80
9980;DHT22;5030;51.532;6.766;2022-09-01T12:48:30;26.40;35.40
9980;DHT22;5030;51.532;6.766;2022-09-01T12:51:23;27.00;37.70
9980;DHT22;5030;51.532;6.766;2022-09-01T12:53:55;27.30;37.40
9980;DHT22;5030;51.532;6.766;2022-09-01T12:56:33;27.60;35.50
9980;DHT22;5030;51.532;6.766;2022-09-01T13:01:34;27.10;34.00
9980;DHT22;5030;51.532;6.766;2022-09-01T13:06:38;26.60;34.10
9980;DHT22;5030;51.532;6.766;2022-09-01T13:09:03;26.50;33.00
9980;DHT22;5030;51.532;6.766;2022-09-01T13:11:29;26.60;33.40
9980;DHT22;5030;51.532;6.766;2022-09-01T13:13:55;27.20;32.60
9980;DHT22;5030;51.532;6.766;2022-09-01T13:16:21;27.30;32.40
9980;DHT22;5030;51.532;6.766;2022-09-01T13:18:47;27.80;32.70
9980;DHT22;5030;51.532;6.766;2022-09-01T13:21:13;28.00;31.90
9980;DHT22;5030;51.532;6.766;2022-09-01T13:23:39;28.20;32.80
9980;DHT22;5030;51.532;6.766;2022-09-01T13:26:05;28.40;32.60
9980;DHT22;5030;51.532;6.766;2022-09-01T13:28:31;28.40;32.00
9980;DHT22;5030;51.532;6.766;2022-09-01T13:31:00;28.50;32.20
9980;DHT22;5030;51.532;6.766;2022-09-01T13:33:26;28.40;31.10
9980;DHT22;5030;51.532;6.766;2022-09-01T13:35:53;28.50;30.30
9980;DHT22;5030;51.532;6.766;2022-09-01T13:38:19;27.90;29.00
9980;DHT22;5030;51.532;6.766;2022-09-01T13:40:46;27.60;29.20
9980;DHT22;5030;51.532;6.766;2022-09-01T13:43:14;27.10;29.00
9980;DHT22;5030;51.532;6.766;2022-09-01T13:45:40;27.90;30.00
9980;DHT22;5030;51.532;6.766;2022-09-01T13:48:07;28.30;28.30
9980;DHT22;5030;51.532;6.766;2022-09-01T13:50:33;28.80;30.00
9980;DHT22;5030;51.532;6.766;2022-09-01T13:52:59;28.60;29.00
9980;DHT22;5030;51.532;6.766;2022-09-01T13:55:28;28.80;29.20
9980;DHT22;5030;51.532;6.766;2022-09-01T13:57:54;29.00;29.30
9980;DHT22;5030;51.532;6.766;2022-09-01T14:00:25;29.00;28.00
9980;DHT22;5030;51.532;6.766;2022-09-01T14:02:52;28.70;48.20
9980;DHT22;5030;51.532;6.766;2022-09-01T14:05:22;28.00;26.60
9980;DHT22;5030;51.532;6.766;2022-09-01T14:07:48;27.80;26.60
9980;DHT22;5030;51.532;6.766;2022-09-01T14:10:16;27.90;27.00
9980;DHT22;5030;51.532;6.766;2022-09-01T14:12:42;28.30;27.70
9980;DHT22;5030;51.532;6.766;2022-09-01T14:15:09;28.60;26.70
9980;DHT22;5030;51.532;6.766;2022-09-01T14:17:36;28.70;27.10
9980;DHT22;5030;51.532;6.766;2022-09-01T14:20:07;28.70;26.50
9980;DHT22;5030;51.532;6.766;2022-09-01T14:22:34;29.00;27.20
9980;DHT22;5030;51.532;6.766;2022-09-01T14:25:00;29.40;27.90
9980;DHT22;5030;51.532;6.766;2022-09-01T14:27:26;29.30;27.20
9980;DHT22;5030;51.532;6.766;2022-09-01T14:29:52;28.40;24.80
9980;DHT22;5030;51.532;6.766;2022-09-01T14:32:20;28.80;24.60
9980;DHT22;5030;51.532;6.766;2022-09-01T14:34:55;28.80;25.50
9980;DHT22;5030;51.532;6.766;2022-09-01T14:37:21;29.10;26.00
9980;DHT22;5030;51.532;6.766;2022-09-01T14:39:49;29.10;24.60
9980;DHT22;5030;51.532;6.766;2022-09-01T14:42:15;28.80;24.00
9980;DHT22;5030;51.532;6.766;2022-09-01T14:44:50;28.40;21.60
9980;DHT22;5030;51.532;6.766;2022-09-01T14:47:17;28.50;23.50
9980;DHT22;5030;51.532;6.766;2022-09-01T14:49:43;29.10;23.80
9980;DHT22;5030;51.532;6.766;2022-09-01T14:52:09;29.10;23.60
9980;DHT22;5030;51.532;6.766;2022-09-01T14:54:40;29.50;24.30
9980;DHT22;5030;51.532;6.766;2022-09-01T14:57:07;29.20;22.60
9980;DHT22;5030;51.532;6.766;2022-09-01T14:59:34;29.30;22.80
9980;DHT22;5030;51.532;6.766;2022-09-01T15:01:59;29.10;22.30
9980;DHT22;5030;51.532;6.766;2022-09-01T15:04:26;29.70;22.70
9980;DHT22;5030;51.532;6.766;2022-09-01T15:06:54;30.00;22.30
9980;DHT22;5030;51.532;6.766;2022-09-01T15:09:20;30.00;22.50
9980;DHT22;5030;51.532;6.766;2022-09-01T15:11:46;29.40;20.60
9980;DHT22;5030;51.532;6.766;2022-09-01T15:14:11;29.00;19.80
9980;DHT22;5030;51.532;6.766;2022-09-01T15:16:38;29.10;19.90
9980;DHT22;5030;51.532;6.766;2022-09-01T15:19:07;28.90;21.00
9980;DHT22;5030;51.532;6.766;2022-09-01T15:21:35;28.90;19.90
9980;DHT22;5030;51.532;6.766;2022-09-01T15:24:02;28.50;19.40
9980;DHT22;5030;51.532;6.766;2022-09-01T15:26:28;28.10;18.50
9980;DHT22;5030;51.532;6.766;2022-09-01T15:28:54;27.50;18.80
9980;DHT22;5030;51.532;6.766;2022-09-01T15:31:21;27.60;18.00
9980;DHT22;5030;51.532;6.766;2022-09-01T15:33:49;28.00;34.70
9980;DHT22;5030;51.532;6.766;2022-09-01T15:36:17;28.00;18.40
9980;DHT22;5030;51.532;6.766;2022-09-01T15:38:43;28.00;18.50
9980;DHT22;5030;51.532;6.766;2022-09-01T15:41:14;28.20;17.40
9980;DHT22;5030;51.532;6.766;2022-09-01T15:43:40;28.50;19.00
9980;DHT22;5030;51.532;6.766;2022-09-01T15:46:05;28.70;17.90
9980;DHT22;5030;51.532;6.766;2022-09-01T15:48:32;28.50;16.80
9980;DHT22;5030;51.532;6.766;2022-09-01T15:53:50;28.60;17.50
9980;DHT22;5030;51.532;6.766;2022-09-01T15:56:17;28.60;17.70
9980;DHT22;5030;51.532;6.766;2022-09-01T15:58:59;28.60;17.10
9980;DHT22;5030;51.532;6.766;2022-09-01T16:01:26;28.60;16.90
9980;DHT22;5030;51.532;6.766;2022-09-01T16:03:54;28.50;15.90
9980;DHT22;5030;51.532;6.766;2022-09-01T16:06:20;28.60;16.60
9980;DHT22;5030;51.532;6.766;2022-09-01T16:08:45;28.00;13.90
9980;DHT22;5030;51.532;6.766;2022-09-01T16:11:11;28.50;15.80
9980;DHT22;5030;51.532;6.766;2022-09-01T16:13:40;28.40;14.70
9980;DHT22;5030;51.532;6.766;2022-09-01T16:18:54;28.80;16.10
9980;DHT22;5030;51.532;6.766;2022-09-01T16:23:52;28.60;14.70
9980;DHT22;5030;51.532;6.766;2022-09-01T16:26:20;28.80;15.90
9980;DHT22;5030;51.532;6.766;2022-09-01T16:28:48;28.80;14.90
9980;DHT22;5030;51.532;6.766;2022-09-01T16:31:18;28.90;15.60
9980;DHT22;5030;51.532;6.766;2022-09-01T16:33:48;28.80;14.40
9980;DHT22;5030;51.532;6.766;2022-09-01T16:38:52;28.90;14.10
9980;DHT22;5030;51.532;6.766;2022-09-01T16:44:18;28.10;12.70
9980;DHT22;5030;51.532;6.766;2022-09-01T16:49:53;28.20;14.10
9980;DHT22;5030;51.532;6.766;2022-09-01T16:52:28;28.70;14.10
9980;DHT22;5030;51.532;6.766;2022-09-01T16:58:19;28.40;12.20
9980;DHT22;5030;51.532;6.766;2022-09-01T17:03:22;27.80;11.70
9980;DHT22;5030;51.532;6.766;2022-09-01T17:05:55;27.60;10.80
9980;DHT22;5030;51.532;6.766;2022-09-01T17:08:28;27.40;11.50
9980;DHT22;5030;51.532;6.766;2022-09-01T17:11:09;27.20;10.70
9980;DHT22;5030;51.532;6.766;2022-09-01T17:13:39;27.00;10.00
9980;DHT22;5030;51.532;6.766;2022-09-01T17:19:14;26.90;10.40
9980;DHT22;5030;51.532;6.766;2022-09-01T17:22:22;26.80;9.90
9980;DHT22;5030;51.532;6.766;2022-09-01T17:24:37;27.00;10.80
9980;DHT22;5030;51.532;6.766;2022-09-01T17:29:46;26.50;9.30
9980;DHT22;5030;51.532;6.766;2022-09-01T17:46:32;24.00;7.90
9980;DHT22;5030;51.532;6.766;2022-09-01T17:52:02;23.70;8.50
9980;DHT22;5030;51.532;6.766;2022-09-01T17:54:42;23.50;7.40
9980;DHT22;5030;51.532;6.766;2022-09-01T18:00:12;23.20;7.50
9980;DHT22;5030;51.532;6.766;2022-09-01T18:05:21;23.00;7.60
9980;DHT22;5030;51.532;6.766;2022-09-01T18:10:54;22.80;7.10
9980;DHT22;5030;51.532;6.766;2022-09-01T18:13:37;22.70;6.80
9980;DHT22;5030;51.532;6.766;2022-09-01T18:16:12;22.50;7.40
9980;DHT22;5030;51.532;6.766;2022-09-01T18:18:46;22.40;7.60
9980;DHT22;5030;51.532;6.766;2022-09-01T18:21:25;22.30;6.70
9980;DHT22;5030;51.532;6.766;2022-09-01T18:24:05;22.30;7.40
9980;DHT22;5030;51.532;6.766;2022-09-01T18:26:38;22.10;6.80
9980;DHT22;5030;51.532;6.766;2022-09-01T18:29:05;21.90;6.70